createdAt,value
2022-10-25T00:02:17.284Z,0.60
2022-10-25T00:04:45.851Z,0.60
2022-10-25T00:07:15.202Z,0.80
2022-10-25T00:09:43.043Z,0.77
2022-10-25T00:12:10.588Z,0.65
2022-10-25T00:14:38.167Z,0.60
2022-10-25T00:17:05.738Z,0.52
2022-10-25T00:19:33.254Z,0.52
2022-10-25T00:22:00.853Z,0.63
2022-10-25T00:24:29.776Z,0.57
2022-10-25T00:26:57.328Z,0.60
2022-10-25T00:29:25.068Z,0.40
2022-10-25T00:31:52.631Z,0.50
2022-10-25T00:34:20.156Z,0.70
2022-10-25T00:36:47.644Z,0.63
2022-10-25T00:39:15.171Z,0.60
2022-10-25T00:41:44.027Z,0.52
2022-10-25T00:44:47.777Z,0.50
2022-10-25T00:47:19.938Z,0.70
2022-10-25T00:49:50.300Z,0.90
2022-10-25T00:52:17.980Z,0.80
2022-10-25T00:54:49.913Z,0.60
2022-10-25T00:57:23.070Z,0.75
2022-10-25T00:59:51.212Z,0.68
2022-10-25T01:02:20.832Z,0.70
2022-10-25T01:04:48.562Z,0.73
2022-10-25T01:07:16.127Z,1.05
2022-10-25T01:09:44.536Z,0.75
2022-10-25T01:12:12.316Z,0.60
2022-10-25T01:14:45.660Z,0.60
2022-10-25T01:17:19.331Z,0.77
2022-10-25T01:20:04.984Z,0.60
2022-10-25T01:22:39.434Z,0.60
2022-10-25T01:25:32.344Z,0.60
2022-10-25T01:28:07.626Z,1.10
2022-10-25T01:31:22.874Z,0.55
2022-10-25T01:33:58.001Z,0.60
2022-10-25T01:36:36.935Z,0.60
2022-10-25T01:39:11.147Z,0.38
2022-10-25T01:41:48.683Z,0.50
2022-10-25T01:44:31.235Z,0.70
2022-10-25T01:47:03.712Z,0.50
2022-10-25T01:49:38.349Z,0.52
2022-10-25T01:52:05.921Z,0.50
2022-10-25T01:54:33.622Z,1.05
2022-10-25T01:57:18.441Z,0.60
2022-10-25T02:00:08.736Z,0.80
2022-10-25T02:02:55.362Z,0.68
2022-10-25T02:05:28.529Z,0.50
2022-10-25T02:08:04.232Z,0.70
2022-10-25T02:10:36.780Z,0.57
2022-10-25T02:13:15.469Z,0.50
2022-10-25T02:15:50.820Z,0.47
2022-10-25T02:18:23.439Z,1.27
2022-10-25T02:20:55.700Z,1.13
2022-10-25T02:23:24.712Z,0.80
2022-10-25T02:25:53.293Z,0.50
2022-10-25T02:28:24.876Z,0.50
2022-10-25T02:30:54.872Z,0.52
2022-10-25T02:33:22.407Z,0.63
2022-10-25T02:36:13.405Z,0.60
2022-10-25T02:38:42.066Z,0.80
2022-10-25T02:41:09.800Z,0.85
2022-10-25T02:43:37.473Z,0.98
2022-10-25T02:46:09.563Z,1.13
2022-10-25T02:48:37.631Z,0.75
2022-10-25T02:51:06.075Z,1.88
2022-10-25T02:53:35.987Z,1.13
2022-10-25T02:56:04.744Z,0.80
2022-10-25T02:58:34.666Z,1.85
2022-10-25T03:01:02.763Z,1.20
2022-10-25T03:03:31.181Z,0.88
2022-10-25T03:05:59.642Z,0.70
2022-10-25T03:11:02.155Z,0.73
2022-10-25T03:13:29.705Z,0.55
2022-10-25T03:15:57.219Z,0.45
2022-10-25T03:18:24.730Z,0.95
2022-10-25T03:20:53.031Z,0.40
2022-10-25T03:23:20.553Z,0.55
2022-10-25T03:25:49.755Z,0.57
2022-10-25T03:28:20.966Z,0.50
2022-10-25T03:30:48.817Z,0.60
2022-10-25T03:33:16.984Z,0.50
2022-10-25T03:35:44.552Z,0.68
2022-10-25T03:38:12.379Z,0.63
2022-10-25T03:40:39.875Z,1.33
2022-10-25T03:43:07.463Z,0.52
2022-10-25T03:45:36.465Z,0.70
2022-10-25T03:48:03.995Z,0.60
2022-10-25T03:50:31.564Z,0.57
2022-10-25T03:52:59.229Z,0.50
2022-10-25T03:55:26.822Z,0.50
2022-10-25T03:57:54.412Z,0.68
2022-10-25T04:00:22.288Z,0.60
2022-10-25T04:02:59.393Z,0.65
2022-10-25T04:05:29.677Z,0.50
2022-10-25T04:07:57.228Z,0.57
2022-10-25T04:10:25.365Z,0.85
2022-10-25T04:12:54.616Z,0.60
2022-10-25T04:15:23.557Z,0.75
2022-10-25T04:17:51.588Z,0.85
2022-10-25T04:20:21.275Z,3.60
2022-10-25T04:22:54.763Z,0.90
2022-10-25T04:25:22.429Z,1.20
2022-10-25T04:27:50.095Z,1.25
2022-10-25T04:30:17.906Z,1.27
2022-10-25T04:32:45.711Z,0.80
2022-10-25T04:35:13.636Z,0.80
2022-10-25T04:37:42.506Z,0.80
2022-10-25T04:40:11.813Z,1.02
2022-10-25T04:42:39.396Z,0.70
2022-10-25T04:45:07.662Z,0.82
2022-10-25T04:47:35.307Z,0.75
2022-10-25T04:50:02.840Z,0.70
2022-10-25T04:52:30.870Z,0.70
2022-10-25T04:55:00.135Z,0.77
2022-10-25T04:57:27.655Z,1.08
2022-10-25T04:59:57.469Z,0.70
2022-10-25T05:02:25.258Z,0.82
2022-10-25T05:04:52.805Z,0.82
2022-10-25T05:07:20.828Z,0.63
2022-10-25T05:09:48.437Z,0.63
2022-10-25T05:12:17.300Z,0.73
2022-10-25T05:14:44.952Z,1.25
2022-10-25T05:17:12.553Z,0.95
2022-10-25T05:19:40.128Z,1.08
2022-10-25T05:22:07.672Z,2.50
2022-10-25T05:24:35.220Z,1.02
2022-10-25T05:27:02.822Z,1.15
2022-10-25T05:29:31.793Z,0.75
2022-10-25T05:31:59.696Z,1.55
2022-10-25T05:34:27.276Z,1.35
2022-10-25T05:36:54.850Z,1.10
2022-10-25T05:39:22.409Z,1.23
2022-10-25T05:41:50.588Z,1.33
2022-10-25T05:44:18.232Z,1.00
2022-10-25T05:46:47.308Z,0.90
2022-10-25T05:49:15.077Z,0.68
2022-10-25T05:51:42.708Z,1.10
2022-10-25T05:54:12.532Z,1.92
2022-10-25T05:56:40.487Z,4.40
2022-10-25T05:59:10.106Z,3.47
2022-10-25T06:01:39.140Z,4.18
2022-10-25T06:04:08.980Z,3.35
2022-10-25T06:06:37.101Z,3.42
2022-10-25T06:09:06.002Z,2.30
2022-10-25T06:11:34.223Z,2.13
2022-10-25T06:14:01.948Z,2.08
2022-10-25T06:16:29.746Z,3.13
2022-10-25T06:18:57.438Z,1.88
2022-10-25T06:21:28.553Z,3.10
2022-10-25T06:23:57.156Z,1.13
2022-10-25T06:26:27.200Z,1.63
2022-10-25T06:28:56.292Z,3.45
2022-10-25T06:31:24.493Z,1.80
2022-10-25T06:33:52.606Z,3.05
2022-10-25T06:36:22.107Z,1.77
2022-10-25T06:38:51.578Z,1.77
2022-10-25T06:41:21.256Z,1.52
2022-10-25T06:43:49.420Z,1.13
2022-10-25T06:46:22.439Z,0.90
2022-10-25T06:48:50.388Z,0.95
2022-10-25T06:51:18.058Z,1.00
2022-10-25T06:53:45.730Z,1.10
2022-10-25T06:56:15.520Z,1.52
2022-10-25T06:58:43.513Z,0.60
2022-10-25T07:01:13.137Z,0.80
2022-10-25T07:03:41.045Z,0.57
2022-10-25T07:06:10.816Z,0.88
2022-10-25T07:08:40.332Z,0.88
2022-10-25T07:11:09.821Z,1.40
2022-10-25T07:13:38.757Z,1.85
2022-10-25T07:16:08.243Z,1.45
2022-10-25T07:18:36.915Z,0.93
2022-10-25T07:21:06.401Z,1.77
2022-10-25T07:23:35.125Z,0.63
2022-10-25T07:26:02.792Z,0.70
2022-10-25T07:28:30.593Z,0.60
2022-10-25T07:30:59.635Z,0.82
2022-10-25T07:33:27.433Z,0.70
2022-10-25T07:36:11.507Z,0.80
2022-10-25T07:38:39.805Z,0.75
2022-10-25T07:41:07.896Z,1.15
2022-10-25T07:43:35.715Z,0.50
2022-10-25T07:46:05.316Z,0.65
2022-10-25T07:48:33.352Z,1.00
2022-10-25T07:51:04.667Z,0.85
2022-10-25T07:53:32.510Z,0.60
2022-10-25T07:56:00.234Z,0.70
2022-10-25T07:58:27.912Z,0.70
2022-10-25T08:01:02.645Z,0.93
2022-10-25T08:03:32.593Z,0.50
2022-10-25T08:06:00.991Z,0.88
2022-10-25T08:08:29.018Z,0.50
2022-10-25T08:10:57.658Z,0.60
2022-10-25T08:13:25.408Z,0.93
2022-10-25T08:15:53.886Z,0.63
2022-10-25T08:18:21.875Z,0.70
2022-10-25T08:21:06.480Z,0.70
2022-10-25T08:23:34.358Z,0.55
2022-10-25T08:26:02.580Z,0.60
2022-10-25T08:28:31.693Z,0.60
2022-10-25T08:31:00.827Z,0.50
2022-10-25T08:33:28.986Z,1.05
2022-10-25T08:36:01.008Z,0.60
2022-10-25T08:38:28.677Z,0.52
2022-10-25T08:41:04.259Z,1.23
2022-10-25T08:44:08.525Z,0.88
2022-10-25T08:49:14.290Z,0.63
2022-10-25T08:51:46.116Z,1.13
2022-10-25T08:54:24.229Z,0.50
2022-10-25T08:57:14.305Z,1.20
2022-10-25T08:59:46.479Z,0.60
2022-10-25T09:02:20.298Z,0.85
2022-10-25T09:04:48.207Z,0.82
2022-10-25T09:07:40.682Z,1.00
2022-10-25T09:10:23.394Z,0.60
2022-10-25T09:12:59.643Z,0.60
2022-10-25T09:15:42.126Z,1.10
2022-10-25T09:18:16.576Z,0.65
2022-10-25T09:23:26.266Z,0.70
2022-10-25T09:26:02.460Z,0.90
2022-10-25T09:28:43.733Z,1.10
2022-10-25T09:31:15.031Z,0.70
2022-10-25T09:33:46.620Z,1.20
2022-10-25T09:36:15.471Z,0.82
2022-10-25T09:38:48.099Z,1.00
2022-10-25T09:41:20.289Z,1.30
2022-10-25T09:43:54.674Z,0.70
2022-10-25T09:46:31.600Z,1.20
2022-10-25T09:49:03.581Z,1.00
2022-10-25T09:51:36.950Z,1.00
2022-10-25T09:56:42.409Z,1.73
2022-10-25T09:59:14.624Z,0.90
2022-10-25T10:01:43.122Z,1.02
2022-10-25T10:04:26.205Z,1.05
2022-10-25T10:06:58.419Z,0.77
2022-10-25T10:09:30.618Z,1.08
2022-10-25T10:12:00.471Z,1.38
2022-10-25T10:14:32.449Z,1.08
2022-10-25T10:17:01.104Z,0.90
2022-10-25T10:19:31.245Z,0.70
2022-10-25T10:22:01.918Z,0.95
2022-10-25T10:24:34.206Z,1.30
2022-10-25T10:27:06.216Z,0.88
2022-10-25T10:29:37.071Z,1.00
2022-10-25T10:32:07.244Z,1.10
2022-10-25T10:34:43.479Z,0.70
2022-10-25T10:37:16.525Z,1.17
2022-10-25T10:39:53.845Z,1.08
2022-10-25T10:42:23.466Z,0.70
2022-10-25T10:45:03.102Z,0.60
2022-10-25T10:47:34.826Z,0.93
2022-10-25T10:50:03.562Z,0.95
2022-10-25T10:52:37.520Z,1.15
2022-10-25T10:55:18.337Z,0.85
2022-10-25T10:57:46.305Z,0.90
2022-10-25T11:00:22.837Z,0.73
2022-10-25T11:02:51.485Z,0.93
2022-10-25T11:05:25.831Z,1.02
2022-10-25T11:07:56.102Z,1.60
2022-10-25T11:10:28.651Z,1.10
2022-10-25T11:13:08.388Z,1.40
2022-10-25T11:15:56.792Z,1.17
2022-10-25T11:18:32.326Z,0.70
2022-10-25T11:21:07.916Z,0.70
2022-10-25T11:23:45.773Z,0.80
2022-10-25T11:26:25.631Z,0.80
2022-10-25T11:29:03.674Z,0.57
2022-10-25T11:31:55.425Z,1.00
2022-10-25T11:34:31.773Z,0.75
2022-10-25T11:37:10.653Z,0.77
2022-10-25T11:39:48.525Z,0.70
2022-10-25T11:42:42.737Z,0.60
2022-10-25T11:45:23.244Z,0.73
2022-10-25T11:48:01.215Z,0.77
2022-10-25T11:50:35.391Z,0.63
2022-10-25T11:53:19.429Z,0.90
2022-10-25T11:55:52.835Z,0.80
2022-10-25T11:58:35.743Z,0.80
2022-10-25T12:01:17.841Z,0.50
2022-10-25T12:04:01.011Z,1.02
2022-10-25T12:06:38.156Z,1.17
2022-10-25T12:09:12.926Z,1.00
2022-10-25T12:11:45.308Z,0.50
2022-10-25T12:14:17.490Z,0.70
2022-10-25T12:16:45.752Z,0.80
2022-10-25T12:19:19.350Z,0.70
2022-10-25T12:21:51.303Z,0.50
2022-10-25T12:24:23.070Z,0.63
2022-10-25T12:26:54.235Z,0.68
2022-10-25T12:29:30.572Z,0.85
2022-10-25T12:32:01.997Z,0.63
2022-10-25T12:34:41.291Z,0.80
2022-10-25T12:37:15.709Z,0.70
2022-10-25T12:39:45.309Z,0.57
2022-10-25T12:42:18.531Z,0.90
2022-10-25T12:48:00.537Z,0.60
2022-10-25T12:51:01.673Z,0.47
2022-10-25T12:54:04.844Z,0.77
2022-10-25T12:56:45.571Z,0.57
2022-10-25T12:59:30.607Z,0.80
2022-10-25T13:02:14.525Z,0.82
2022-10-25T13:05:02.217Z,0.70
2022-10-25T13:07:34.515Z,0.70
2022-10-25T13:10:05.602Z,0.47
2022-10-25T13:12:33.413Z,0.57
2022-10-25T13:15:02.013Z,0.60
2022-10-25T13:18:00.701Z,0.70
2022-10-25T13:20:59.157Z,0.93
2022-10-25T13:24:02.312Z,0.60
2022-10-25T13:26:33.630Z,0.90
2022-10-25T13:29:03.841Z,0.70
2022-10-25T13:31:58.080Z,0.47
2022-10-25T13:34:36.430Z,0.60
2022-10-25T13:37:06.665Z,0.80
2022-10-25T13:39:39.053Z,0.55
2022-10-25T13:42:23.308Z,0.40
2022-10-25T13:44:56.443Z,0.65
2022-10-25T13:49:58.920Z,0.60
2022-10-25T13:52:33.020Z,0.60
2022-10-25T13:55:03.756Z,1.55
2022-10-25T13:57:54.369Z,0.60
2022-10-25T14:00:36.505Z,0.90
2022-10-25T14:03:25.473Z,0.65
2022-10-25T14:06:24.712Z,0.50
2022-10-25T14:08:57.152Z,0.80
2022-10-25T14:11:34.392Z,0.52
2022-10-25T14:14:08.223Z,0.60
2022-10-25T14:16:55.039Z,0.63
2022-10-25T14:19:25.276Z,0.35
2022-10-25T14:21:56.210Z,0.95
2022-10-25T14:24:23.937Z,0.90
2022-10-25T14:26:53.337Z,0.50
2022-10-25T14:29:23.029Z,0.70
2022-10-25T14:31:51.528Z,0.52
2022-10-25T14:34:21.804Z,0.50
2022-10-25T14:36:51.392Z,0.60
2022-10-25T14:39:23.860Z,0.60
2022-10-25T14:41:53.189Z,7.35
2022-10-25T14:44:25.156Z,1.70
2022-10-25T14:46:54.209Z,1.00
2022-10-25T14:49:22.740Z,1.50
2022-10-25T14:51:52.409Z,1.70
2022-10-25T14:54:30.448Z,1.13
2022-10-25T14:57:00.118Z,0.77
2022-10-25T14:59:30.311Z,0.70
2022-10-25T15:02:00.497Z,0.88
2022-10-25T15:04:31.573Z,1.02
2022-10-25T15:06:59.976Z,0.93
2022-10-25T15:09:42.312Z,0.70
2022-10-25T15:12:18.167Z,0.63
2022-10-25T15:14:48.032Z,1.00
2022-10-25T15:17:18.932Z,0.70
2022-10-25T15:20:05.032Z,0.47
2022-10-25T15:22:34.696Z,0.70
2022-10-25T15:25:19.127Z,0.70
2022-10-25T15:27:48.885Z,0.77
2022-10-25T15:30:36.766Z,0.80
2022-10-25T15:33:06.043Z,1.00
2022-10-25T15:35:42.232Z,1.30
2022-10-25T15:38:11.057Z,0.75
2022-10-25T15:40:40.045Z,0.80
2022-10-25T15:43:07.550Z,0.70
2022-10-25T15:45:35.085Z,1.80
2022-10-25T15:48:04.783Z,3.97
2022-10-25T15:50:32.582Z,2.10
2022-10-25T15:53:00.924Z,1.17
2022-10-25T15:55:32.817Z,1.10
2022-10-25T15:58:01.709Z,1.05
2022-10-25T16:00:30.831Z,1.25
2022-10-25T16:02:58.909Z,1.52
2022-10-25T16:05:28.740Z,1.17
2022-10-25T16:07:56.481Z,1.10
2022-10-25T16:10:25.595Z,0.98
2022-10-25T16:12:59.506Z,3.60
2022-10-25T16:15:28.981Z,2.30
2022-10-25T16:17:56.866Z,2.05
2022-10-25T16:20:26.205Z,1.15
2022-10-25T16:22:55.404Z,1.10
2022-10-25T16:25:25.905Z,1.13
2022-10-25T16:27:55.417Z,1.08
2022-10-25T16:30:25.074Z,0.93
2022-10-25T16:32:53.994Z,1.08
2022-10-25T16:35:24.153Z,0.80
2022-10-25T16:37:52.304Z,0.98
2022-10-25T16:40:21.812Z,0.88
2022-10-25T16:42:49.699Z,0.80
2022-10-25T16:45:22.361Z,1.33
2022-10-25T16:47:49.938Z,1.52
2022-10-25T16:50:23.027Z,1.08
2022-10-25T16:52:51.056Z,0.90
2022-10-25T16:55:19.269Z,0.95
2022-10-25T16:57:49.908Z,0.75
2022-10-25T17:00:17.941Z,0.60
2022-10-25T17:02:45.793Z,0.82
2022-10-25T17:05:19.996Z,0.85
2022-10-25T17:07:47.685Z,1.00
2022-10-25T17:10:15.439Z,1.40
2022-10-25T17:12:44.343Z,1.30
2022-10-25T17:15:12.672Z,1.10
2022-10-25T17:17:40.980Z,0.77
2022-10-25T17:20:10.343Z,1.42
2022-10-25T17:22:39.656Z,1.30
2022-10-25T17:25:09.196Z,1.65
2022-10-25T17:27:39.652Z,1.90
2022-10-25T17:30:08.653Z,2.85
2022-10-25T17:32:36.523Z,1.92
2022-10-25T17:35:05.544Z,2.42
2022-10-25T17:37:33.176Z,1.70
2022-10-25T17:40:02.480Z,1.25
2022-10-25T17:42:30.013Z,1.35
2022-10-25T17:44:57.573Z,1.15
2022-10-25T17:47:25.069Z,10.65
2022-10-25T17:49:54.232Z,6.28
2022-10-25T17:52:21.778Z,6.43
2022-10-25T17:54:49.295Z,7.28
2022-10-25T17:57:18.152Z,4.63
2022-10-25T17:59:45.714Z,3.83
2022-10-25T18:02:13.280Z,2.42
2022-10-25T18:04:53.629Z,2.47
2022-10-25T18:07:21.529Z,2.35
2022-10-25T18:09:49.072Z,2.47
2022-10-25T18:12:17.984Z,5.72
2022-10-25T18:14:45.577Z,2.00
2022-10-25T18:17:13.092Z,1.33
2022-10-25T18:19:40.715Z,1.10
2022-10-25T18:22:08.212Z,1.90
2022-10-25T18:24:37.017Z,3.00
2022-10-25T18:27:04.635Z,2.50
2022-10-25T18:29:35.272Z,2.15
2022-10-25T18:32:02.869Z,1.77
2022-10-25T18:34:30.500Z,2.97
2022-10-25T18:36:58.180Z,2.97
2022-10-25T18:39:25.855Z,2.67
2022-10-25T18:41:54.978Z,2.00
2022-10-25T18:44:22.769Z,2.38
2022-10-25T18:46:53.175Z,2.17
2022-10-25T18:49:20.785Z,2.70
2022-10-25T18:51:48.315Z,2.30
2022-10-25T18:54:15.883Z,2.30
2022-10-25T18:56:43.453Z,2.10
2022-10-25T18:59:11.464Z,2.20
2022-10-25T19:01:39.119Z,1.98
2022-10-25T19:04:08.237Z,2.72
2022-10-25T19:06:35.887Z,2.25
2022-10-25T19:09:04.567Z,2.75
2022-10-25T19:11:33.204Z,2.30
2022-10-25T19:14:01.324Z,2.38
2022-10-25T19:16:28.919Z,2.42
2022-10-25T19:18:56.458Z,2.55
2022-10-25T19:21:25.302Z,2.55
2022-10-25T19:23:54.107Z,3.00
2022-10-25T19:26:23.041Z,3.40
2022-10-25T19:28:56.619Z,3.00
2022-10-25T19:31:24.581Z,3.78
2022-10-25T19:33:52.812Z,2.75
2022-10-25T19:36:21.491Z,2.78
2022-10-25T19:38:50.439Z,3.35
2022-10-25T19:41:19.999Z,3.35
2022-10-25T19:43:48.029Z,3.05
2022-10-25T19:46:16.180Z,3.05
2022-10-25T19:48:43.740Z,3.17
2022-10-25T19:51:13.194Z,2.88
2022-10-25T19:53:41.040Z,2.95
2022-10-25T19:56:12.853Z,3.20
2022-10-25T19:58:40.908Z,3.00
2022-10-25T20:01:11.349Z,3.65
2022-10-25T20:03:39.998Z,3.45
2022-10-25T20:06:09.729Z,3.38
2022-10-25T20:08:39.128Z,3.22
2022-10-25T20:11:07.460Z,3.20
2022-10-25T20:13:36.672Z,3.80
2022-10-25T20:16:05.153Z,3.40
2022-10-25T20:18:34.916Z,3.33
2022-10-25T20:21:05.935Z,4.38
2022-10-25T20:23:33.596Z,3.67
2022-10-25T20:26:10.892Z,3.72
2022-10-25T20:28:39.782Z,3.22
2022-10-25T20:31:07.667Z,3.40
2022-10-25T20:33:35.221Z,4.13
2022-10-25T20:36:03.862Z,3.70
2022-10-25T20:38:32.197Z,3.75
2022-10-25T20:41:03.804Z,7.43
2022-10-25T20:43:31.386Z,5.90
2022-10-25T20:46:00.928Z,4.35
2022-10-25T20:48:28.569Z,4.03
2022-10-25T20:50:56.264Z,3.72
2022-10-25T20:53:24.440Z,3.15
2022-10-25T20:55:51.940Z,2.85
2022-10-25T20:58:21.124Z,4.50
2022-10-25T21:00:49.363Z,6.65
2022-10-25T21:03:18.241Z,3.20
2022-10-25T21:05:45.788Z,3.72
2022-10-25T21:08:13.644Z,3.50
2022-10-25T21:10:41.612Z,2.80
2022-10-25T21:13:09.989Z,4.82
2022-10-25T21:15:37.671Z,4.63
2022-10-25T21:18:05.340Z,5.10
2022-10-25T21:20:34.216Z,3.60
2022-10-25T21:23:01.712Z,2.83
2022-10-25T21:25:29.425Z,3.17
2022-10-25T21:27:57.904Z,2.83
2022-10-25T21:30:25.467Z,3.08
2022-10-25T21:32:53.065Z,2.83
2022-10-25T21:35:21.074Z,2.83
2022-10-25T21:37:50.469Z,2.90
2022-10-25T21:40:19.468Z,2.60
2022-10-25T21:42:47.147Z,3.22
2022-10-25T21:45:14.660Z,3.20
2022-10-25T21:47:42.173Z,3.10
2022-10-25T21:50:10.513Z,3.05
2022-10-25T21:52:38.093Z,5.03
2022-10-25T21:55:08.095Z,4.40
2022-10-25T21:57:36.204Z,3.80
2022-10-25T22:00:04.596Z,3.55
2022-10-25T22:02:40.564Z,3.38
2022-10-25T22:05:08.904Z,3.45
2022-10-25T22:07:36.441Z,3.15
2022-10-25T22:10:04.164Z,3.10
2022-10-25T22:12:33.014Z,3.50
2022-10-25T22:15:00.538Z,3.65
2022-10-25T22:17:28.048Z,3.70
2022-10-25T22:19:55.553Z,3.03
2022-10-25T22:22:23.072Z,3.85
2022-10-25T22:24:50.587Z,3.10
2022-10-25T22:27:18.156Z,2.95
2022-10-25T22:29:47.024Z,2.67
2022-10-25T22:32:14.534Z,3.05
2022-10-25T22:34:42.621Z,2.67
2022-10-25T22:37:10.130Z,2.47
2022-10-25T22:39:37.700Z,2.08
2022-10-25T22:42:11.461Z,3.05
2022-10-25T22:44:39.382Z,2.75
2022-10-25T22:47:08.244Z,2.40
2022-10-25T22:49:35.792Z,2.40
2022-10-25T22:52:03.346Z,2.28
2022-10-25T22:54:30.877Z,2.58
2022-10-25T22:56:58.487Z,1.95
2022-10-25T22:59:26.005Z,2.17
2022-10-25T23:01:53.819Z,2.08
2022-10-25T23:04:22.797Z,2.70
2022-10-25T23:06:50.376Z,2.58
2022-10-25T23:09:17.943Z,2.47
2022-10-25T23:11:45.901Z,2.00
2022-10-25T23:14:16.607Z,2.20
2022-10-25T23:16:45.431Z,2.00
2022-10-25T23:19:12.957Z,2.10
2022-10-25T23:21:41.878Z,2.20
2022-10-25T23:24:10.303Z,1.83
2022-10-25T23:26:37.946Z,2.05
2022-10-25T23:29:05.689Z,1.92
2022-10-25T23:31:33.564Z,1.85
2022-10-25T23:34:01.813Z,1.50
2022-10-25T23:36:36.960Z,1.88
2022-10-25T23:39:07.112Z,1.35
2022-10-25T23:41:34.649Z,1.75
2022-10-25T23:44:02.317Z,1.52
2022-10-25T23:46:29.841Z,1.52
2022-10-25T23:48:57.661Z,1.52
2022-10-25T23:51:25.238Z,1.80
2022-10-25T23:53:52.769Z,1.65
2022-10-25T23:56:21.650Z,1.60
2022-10-25T23:58:53.164Z,2.20
